Time;durP1;ratioP1;P1;durP2;ratioP2;P2;SDS_P1;SDS_P2;PMS_P1;PMS_P2;Temp;Humidity;BMP_temperature;BMP_pressure;BME280_temperature;BME280_humidity;BME280_pressure;Samples;Min_cycle;Max_cycle;Signal;HPM_P1;HPM_P2
2022/11/21 00:00:53;;;;;;;75.87;26.95;;;;;;;-3.55;100.00;98032.59;4155456;34;20048;-70
2022/11/21 00:03:20;;;;;;;84.35;26.08;;;;;;;-3.59;100.00;98028.69;4141048;34;20197;-71
2022/11/21 00:05:48;;;;;;;74.75;26.33;;;;;;;-3.69;100.00;98032.41;4139969;34;20040;-69
2022/11/21 00:08:17;;;;;;;66.75;24.67;;;;;;;-3.83;100.00;97999.06;4145478;34;20107;-70
2022/11/21 00:10:44;;;;;;;79.50;24.73;;;;;;;-3.72;100.00;98038.06;4165106;34;20084;-70
2022/11/21 00:13:18;;;;;;;73.10;25.40;;;;;;;-3.68;100.00;98028.81;4167654;34;20094;-71
2022/11/21 00:15:46;;;;;;;70.45;24.63;;;;;;;-3.70;100.00;98017.66;4166224;34;20040;-70
2022/11/21 00:18:13;;;;;;;73.80;24.92;;;;;;;-3.96;100.00;97983.09;4165628;34;20089;-70
2022/11/21 00:20:41;;;;;;;65.72;23.90;;;;;;;-3.74;100.00;98019.00;4160103;34;20234;-70
2022/11/21 00:23:08;;;;;;;86.03;27.25;;;;;;;-4.08;100.00;97965.16;4159892;34;20066;-71
2022/11/21 00:25:34;;;;;;;56.47;19.52;;;;;;;-4.04;100.00;97981.37;4159961;34;20479;-70
2022/11/21 00:28:01;;;;;;;74.85;24.20;;;;;;;-4.04;100.00;98013.78;4192393;34;20099;-69
2022/11/21 00:30:34;;;;;;;78.32;24.67;;;;;;;-4.01;100.00;97981.81;4194558;34;20074;-70
2022/11/21 00:33:08;;;;;;;73.22;25.90;;;;;;;-3.93;100.00;97993.25;4189165;34;20097;-70
2022/11/21 00:35:34;;;;;;;61.88;23.70;;;;;;;-4.06;100.00;97967.59;4217707;34;20040;-71
2022/11/21 00:38:01;;;;;;;59.65;22.13;;;;;;;-3.83;100.00;98009.56;4213873;34;20043;-69
2022/11/21 00:40:27;;;;;;;80.55;27.73;;;;;;;-4.18;100.00;97969.06;4244459;33;20076;-71
2022/11/21 00:42:54;;;;;;;64.87;23.42;;;;;;;-3.88;100.00;98006.69;4258168;33;20041;-70
2022/11/21 00:45:20;;;;;;;59.47;21.37;;;;;;;-3.83;100.00;98009.56;4257633;33;20055;-71
2022/11/21 00:47:47;;;;;;;81.80;22.98;;;;;;;-3.91;100.00;98007.88;4256055;33;20109;-69
2022/11/21 00:50:13;;;;;;;59.67;21.02;;;;;;;-4.14;100.00;97963.25;4253536;33;20464;-71
2022/11/21 00:52:40;;;;;;;64.55;22.10;;;;;;;-3.99;100.00;97999.25;4257980;33;20039;-71
2022/11/21 00:55:06;;;;;;;63.83;22.80;;;;;;;-4.06;100.00;97994.72;4256039;33;20038;-71
2022/11/21 00:57:33;;;;;;;58.83;21.27;;;;;;;-4.46;100.00;97956.53;4257213;33;20064;-71
2022/11/21 00:59:59;;;;;;;66.93;23.20;;;;;;;-4.32;100.00;97991.69;4257639;33;20059;-69
2022/11/21 03:00:41;;;;;;;50.95;15.98;;;;;;;-3.90;100.00;97985.00;4879889;28;20101;-69
2022/11/21 03:03:08;;;;;;;41.67;15.63;;;;;;;-3.81;100.00;97970.78;4275242;33;20049;-68
2022/11/21 03:05:35;;;;;;;54.45;16.08;;;;;;;-3.91;100.00;97963.16;4282211;33;20053;-69
2022/11/21 03:08:02;;;;;;;40.28;16.45;;;;;;;-4.07;100.00;97926.53;4237623;33;20796;-70
2022/11/21 03:10:28;;;;;;;46.20;17.55;;;;;;;-3.77;100.00;97963.31;4251606;33;20034;-69
2022/11/21 03:12:59;;;;;;;35.38;14.65;;;;;;;-3.88;100.00;97960.19;4251161;33;20195;-69
2022/11/21 03:15:31;;;;;;;41.33;15.02;;;;;;;-4.02;100.00;97937.31;4251741;33;20042;-70
2022/11/21 03:18:01;;;;;;;58.08;17.60;;;;;;;-4.15;100.00;97947.66;4251735;33;20056;-70
2022/11/21 03:20:33;;;;;;;51.20;17.87;;;;;;;-4.41;100.00;97923.44;4251955;33;20424;-70
2022/11/21 03:22:59;;;;;;;;;;;;;;;-4.12;100.00;97970.97;4248897;33;20068;-70
2022/11/21 03:25:26;;;;;;;34.85;14.10;;;;;;;-4.11;100.00;97981.31;4251338;33;19957;-70
2022/11/21 03:27:53;;;;;;;45.08;14.65;;;;;;;-4.14;100.00;97976.41;4251675;33;20035;-70
2022/11/21 03:30:21;;;;;;;43.65;16.33;;;;;;;-4.05;100.00;97975.31;4252364;33;20038;-70
2022/11/21 03:32:48;;;;;;;51.80;19.23;;;;;;;-4.19;100.00;97957.72;4253354;33;20033;-69
2022/11/21 03:35:14;;;;;;;43.08;16.27;;;;;;;-3.93;100.00;97959.06;4249783;33;20076;-70
2022/11/21 03:37:41;;;;;;;50.78;17.45;;;;;;;-4.25;100.00;97916.41;4251059;33;20090;-70
2022/11/21 03:40:08;;;;;;;44.70;15.38;;;;;;;-3.88;100.00;97951.44;4251124;33;20062;-70
2022/11/21 03:42:34;;;;;;;45.70;16.33;;;;;;;-3.84;100.00;97956.16;4251387;33;20503;-70
2022/11/21 03:45:01;;;;;;;49.78;17.10;;;;;;;-3.86;100.00;97937.13;4216339;33;20038;-69
2022/11/21 03:47:27;;;;;;;45.60;16.87;;;;;;;-3.73;100.00;97941.72;4236312;33;20038;-69
2022/11/21 03:49:53;;;;;;;45.40;18.30;;;;;;;-3.78;100.00;97944.09;4237498;33;20420;-70
2022/11/21 03:52:27;;;;;;;46.42;17.92;;;;;;;-3.99;100.00;97904.59;4235023;33;20050;-69
2022/11/21 03:54:53;;;;;;;50.78;19.37;;;;;;;-3.55;100.00;97928.16;4221869;34;20353;-69
2022/11/21 03:57:19;;;;;;;47.47;18.15;;;;;;;-3.85;100.00;97906.38;4234561;33;20070;-70
2022/11/21 03:59:46;;;;;;;49.60;17.83;;;;;;;-3.86;100.00;97889.78;4237035;33;20073;-70
2022/11/21 04:02:12;;;;;;;50.38;19.58;;;;;;;-3.90;100.00;97877.19;4236934;33;20113;-69
2022/11/21 04:04:39;;;;;;;61.03;20.25;;;;;;;-3.96;100.00;97912.09;4236979;33;20033;-71
2022/11/21 04:07:05;;;;;;;62.70;22.77;;;;;;;-4.29;100.00;97878.31;4206598;34;20416;-69
2022/11/21 04:09:31;;;;;;;52.42;20.45;;;;;;;-4.45;100.00;97867.03;4207641;34;20470;-70
2022/11/21 04:11:58;;;;;;;59.65;20.95;;;;;;;-4.27;100.00;97902.63;4209127;34;20073;-71
2022/11/21 04:14:24;;;;;;;57.20;21.37;;;;;;;-4.23;100.00;97911.75;4208765;34;20080;-70
2022/11/21 04:16:51;;;;;;;56.97;20.70;;;;;;;-4.10;100.00;97906.69;4206702;34;20417;-70
2022/11/21 04:19:17;;;;;;;56.08;19.23;;;;;;;-4.17;100.00;97897.09;4205852;34;20069;-70
2022/11/21 04:21:44;;;;;;;50.85;20.25;;;;;;;-4.27;100.00;97892.13;4207516;34;20283;-70
2022/11/21 04:24:10;;;;;;;48.83;19.08;;;;;;;-4.02;100.00;97906.59;4208555;34;20057;-69
2022/11/21 04:26:36;;;;;;;57.40;19.70;;;;;;;-4.01;100.00;97897.69;4208775;34;20047;-71
2022/11/21 04:29:03;;;;;;;60.90;21.08;;;;;;;-4.28;100.00;97893.09;4208786;34;20035;-69
2022/11/21 04:31:35;;;;;;;54.10;21.02;;;;;;;-4.51;100.00;97859.87;4208901;34;20081;-69
2022/11/21 04:34:02;;;;;;;48.40;20.77;;;;;;;-4.39;100.00;97858.41;4208961;34;20053;-70
2022/11/21 04:36:29;;;;;;;46.92;19.12;;;;;;;-4.26;100.00;97899.81;4207314;34;20043;-69
2022/11/21 04:38:55;;;;;;;47.75;18.50;;;;;;;-4.61;100.00;97902.16;4242178;33;20396;-70
2022/11/21 04:41:22;;;;;;;41.33;17.67;;;;;;;-4.68;100.00;97903.06;4248504;33;20054;-69
2022/11/21 04:43:48;;;;;;;44.40;16.40;;;;;;;-4.64;100.00;97901.69;4250768;33;20087;-69
2022/11/21 04:46:15;;;;;;;47.40;18.12;;;;;;;-4.83;100.00;97903.06;4250334;33;20047;-70
2022/11/21 04:48:42;;;;;;;45.10;19.45;;;;;;;-4.70;100.00;97881.44;4276727;33;20037;-70
2022/11/21 04:51:08;;;;;;;57.05;21.98;;;;;;;-4.52;100.00;97874.00;4282810;33;20067;-71
2022/11/21 04:53:34;;;;;;;55.42;22.20;;;;;;;-4.53;100.00;97861.03;4282239;33;20045;-70
2022/11/21 04:56:05;;;;;;;55.83;21.05;;;;;;;-4.66;100.00;97872.16;4283885;33;20079;-70
2022/11/21 04:58:31;;;;;;;56.55;21.85;;;;;;;-4.72;100.00;97820.34;4284388;33;20053;-70
2022/11/21 05:01:05;;;;;;;55.33;23.08;;;;;;;-4.95;100.00;97818.63;4283967;33;20049;-70
2022/11/21 05:03:32;;;;;;;59.55;18.87;;;;;;;-5.22;100.00;97826.09;4284288;33;20053;-70
2022/11/21 05:05:58;;;;;;;51.97;19.50;;;;;;;-4.99;100.00;97862.81;4284195;33;20046;-70
2022/11/21 05:08:24;;;;;;;57.53;18.45;;;;;;;-5.00;100.00;97860.38;4283809;33;20075;-70
2022/11/21 05:13:36;;;;;;;60.38;20.23;;;;;;;-4.92;100.00;97865.53;4284331;33;20080;-70
2022/11/21 05:16:03;;;;;;;54.95;18.70;;;;;;;-4.56;100.00;97855.16;4283956;33;20068;-70
2022/11/21 05:18:29;;;;;;;50.78;20.98;;;;;;;-4.69;100.00;97856.78;4284111;33;20045;-70
2022/11/21 05:20:56;;;;;;;53.35;20.42;;;;;;;-4.68;100.00;97850.53;4281865;33;20059;-70
2022/11/21 05:23:22;;;;;;;49.05;21.50;;;;;;;-4.87;100.00;97844.81;4252637;33;20105;-70
2022/11/21 05:25:49;;;;;;;45.75;18.80;;;;;;;-4.99;100.00;97830.50;4208827;34;20507;-70
2022/11/21 05:28:15;;;;;;;49.15;18.95;;;;;;;-4.84;100.00;97820.81;4211436;34;20378;-70
2022/11/21 05:30:42;;;;;;;62.05;20.08;;;;;;;-4.77;100.00;97818.28;4193723;34;20083;-69
2022/11/21 05:33:08;;;;;;;41.65;17.60;;;;;;;-4.46;100.00;97847.00;4184849;34;20060;-70
2022/11/21 05:35:34;;;;;;;44.25;19.05;;;;;;;-4.42;100.00;97832.50;4184937;34;20071;-70
2022/11/21 05:38:01;;;;;;;42.88;16.62;;;;;;;-4.64;100.00;97791.37;4196856;34;20615;-70
2022/11/21 05:40:27;;;;;;;45.58;17.92;;;;;;;-4.15;100.00;97822.28;4182621;34;20040;-70
2022/11/21 05:45:38;;;;;;;53.33;19.90;;;;;;;-4.26;100.00;97820.13;4182864;34;20455;-69
2022/11/21 05:48:06;;;;;;;53.50;20.75;;;;;;;-4.31;100.00;97833.00;4182698;34;20048;-71
2022/11/21 05:50:35;;;;;;;45.92;16.92;;;;;;;-4.46;100.00;97847.00;4180026;34;20053;-70
2022/11/21 05:53:03;;;;;;;46.25;16.95;;;;;;;-4.46;100.00;97852.25;4183158;34;20441;-70
2022/11/21 05:55:32;;;;;;;48.50;18.25;;;;;;;-4.44;100.00;97858.13;4183078;34;20062;-70
2022/11/21 05:57:59;;;;;;;53.63;17.92;;;;;;;-4.67;100.00;97810.16;4209285;34;20024;-70
2022/11/21 06:00:27;;;;;;;49.83;18.05;;;;;;;-4.45;100.00;97840.75;4211827;34;20050;-70
2022/11/21 06:05:39;;;;;;;42.17;17.70;;;;;;;-4.57;100.00;97839.56;4224469;34;20113;-70
2022/11/21 06:08:06;;;;;;;48.20;18.05;;;;;;;-4.58;100.00;97828.25;4228223;33;20080;-69
2022/11/21 06:10:32;;;;;;;47.20;18.27;;;;;;;-4.16;100.00;97852.22;4240976;33;20217;-70
2022/11/21 06:13:00;;;;;;;44.42;15.48;;;;;;;-4.10;100.00;97838.34;4283113;33;20067;-70
2022/11/21 06:15:33;;;;;;;46.50;18.08;;;;;;;-4.13;100.00;97835.25;4281848;33;20041;-70
2022/11/21 06:18:00;;;;;;;48.47;18.80;;;;;;;-4.26;100.00;97791.22;4279535;33;20033;-69
2022/11/21 06:20:27;;;;;;;50.47;18.45;;;;;;;-4.36;100.00;97793.34;4282951;33;20367;-69
2022/11/21 06:22:53;;;;;;;45.35;18.15;;;;;;;-3.91;100.00;97828.19;4282802;33;20040;-70
2022/11/21 06:25:19;;;;;;;43.22;16.45;;;;;;;-4.07;100.00;97787.19;4282816;33;20041;-70
2022/11/21 06:27:46;;;;;;;50.17;17.08;;;;;;;-3.92;100.00;97831.84;4282665;33;20053;-69
2022/11/21 06:30:13;;;;;;;38.42;15.13;;;;;;;-3.88;100.00;97833.09;4281535;33;20038;-70
2022/11/21 06:32:39;;;;;;;41.30;16.58;;;;;;;-3.81;100.00;97838.41;4252008;33;20063;-70
2022/11/21 06:35:06;;;;;;;44.17;17.70;;;;;;;-3.46;100.00;97828.84;4252705;33;20049;-70
2022/11/21 06:37:32;;;;;;;48.67;18.25;;;;;;;-3.75;100.00;97800.84;4252212;33;20042;-70
2022/11/21 06:39:59;;;;;;;49.78;17.58;;;;;;;-3.25;100.00;97838.53;4248611;33;20054;-69
2022/11/21 06:42:25;;;;;;;44.80;17.20;;;;;;;-3.45;100.00;97827.84;4241209;33;20265;-69
2022/11/21 06:44:52;;;;;;;41.33;15.10;;;;;;;-3.30;100.00;97815.41;4252145;33;20078;-71
2022/11/21 06:47:18;;;;;;;39.67;15.45;;;;;;;-2.91;100.00;97842.22;4252458;33;20068;-70
2022/11/21 06:49:45;;;;;;;41.63;14.75;;;;;;;-3.12;100.00;97814.13;4250498;33;20412;-69
2022/11/21 06:52:11;;;;;;;58.08;17.30;;;;;;;-2.70;100.00;97830.81;4249020;33;20087;-72
2022/11/21 06:54:38;;;;;;;49.38;15.75;;;;;;;-2.94;100.00;97803.09;4233499;33;20187;-71
2022/11/21 06:57:04;;;;;;;51.30;18.67;;;;;;;-2.63;100.00;97842.22;4222452;34;20059;-70
2022/11/21 06:59:30;;;;;;;40.47;15.90;;;;;;;-2.58;100.00;97837.16;4220136;34;20050;-70
2022/11/21 07:01:57;;;;;;;46.75;15.68;;;;;;;-2.61;100.00;97845.47;4217970;34;20059;-69
2022/11/21 07:04:23;;;;;;;37.65;15.90;;;;;;;-2.86;100.00;97815.31;4217975;34;20058;-70
2022/11/21 07:06:50;;;;;;;40.08;17.83;;;;;;;-2.77;100.00;97819.44;4180302;34;20195;-70
2022/11/21 07:09:16;;;;;;;54.53;17.80;;;;;;;-2.56;100.00;97858.84;4179584;34;20052;-70
2022/11/21 07:11:43;;;;;;;45.10;18.27;;;;;;;-2.73;100.00;97820.66;4179641;34;20055;-70
2022/11/21 07:14:10;;;;;;;39.17;16.73;;;;;;;-2.58;100.00;97866.16;4191519;34;20035;-70
2022/11/21 07:16:36;;;;;;;39.50;16.90;;;;;;;-2.75;100.00;97825.31;4195601;34;20079;-70
2022/11/21 07:19:03;;;;;;;42.50;16.50;;;;;;;-2.30;100.00;97862.62;4167716;34;20169;-70
2022/11/21 07:21:29;;;;;;;35.90;15.45;;;;;;;-2.04;100.00;97818.94;4168397;34;20090;-70
2022/11/21 07:24:02;;;;;;;39.72;16.23;;;;;;;-2.18;100.00;97819.91;4165988;34;20099;-72
2022/11/21 07:26:29;;;;;;;38.95;15.50;;;;;;;-1.99;100.00;97853.47;4168074;34;20953;-69
2022/11/21 07:28:57;;;;;;;43.65;17.48;;;;;;;-1.78;100.00;97841.12;4168440;34;20098;-69
2022/11/21 07:31:23;;;;;;;40.25;16.98;;;;;;;-2.11;100.00;97839.19;4168242;34;20410;-70
2022/11/21 07:33:49;;;;;;;39.78;14.87;;;;;;;-1.98;100.00;97801.50;4167044;34;20101;-70
2022/11/21 07:36:16;;;;;;;43.20;16.75;;;;;;;-1.93;100.00;97831.56;4176177;34;20040;-70
2022/11/21 07:38:45;;;;;;;39.38;15.93;;;;;;;-1.83;100.00;97829.34;4215009;34;20046;-69
2022/11/21 07:41:11;;;;;;;37.17;16.50;;;;;;;-1.70;100.00;97830.38;4222784;34;20140;-69
2022/11/21 07:43:38;;;;;;;44.75;16.75;;;;;;;-1.99;100.00;97794.59;4209424;34;20061;-69
2022/11/21 07:46:04;;;;;;;34.78;13.88;;;;;;;-1.67;100.00;97824.72;4207424;34;20043;-68
2022/11/21 07:48:31;;;;;;;34.50;13.73;;;;;;;-1.43;100.00;97814.59;4209031;34;20380;-70
2022/11/21 07:50:57;;;;;;;32.35;12.90;;;;;;;-1.65;100.00;97812.13;4209290;34;20085;-70
2022/11/21 07:53:24;;;;;;;33.55;13.27;;;;;;;-1.55;100.00;97804.59;4201125;34;20056;-70
2022/11/21 07:55:50;;;;;;;34.67;14.80;;;;;;;-1.37;100.00;97808.47;4199174;34;20089;-70
2022/11/21 07:58:17;;;;;;;39.70;16.83;;;;;;;-1.63;100.00;97794.25;4221275;34;20369;-69
2022/11/21 08:00:44;;;;;;;33.03;11.12;;;;;;;-1.24;100.00;97789.22;4230447;33;20207;-69
2022/11/21 08:03:12;;;;;;;33.70;13.65;;;;;;;-1.46;100.00;97790.19;4236462;33;20077;-69
2022/11/21 08:05:42;;;;;;;34.97;15.55;;;;;;;-1.02;100.00;97789.78;4208646;34;20057;-69
2022/11/21 08:08:10;;;;;;;33.78;15.65;;;;;;;-0.96;100.00;97781.03;4206956;34;20452;-68
2022/11/21 08:10:39;;;;;;;56.08;20.85;;;;;;;-0.84;100.00;97766.16;4208715;34;20068;-69
2022/11/21 08:13:06;;;;;;;38.45;16.87;;;;;;;-1.02;100.00;97766.00;4209069;34;20110;-69
2022/11/21 08:15:32;;;;;;;39.97;18.25;;;;;;;-1.06;100.00;97725.16;4220639;34;20074;-69
2022/11/21 08:18:12;;;;;;;41.63;17.62;;;;;;;-0.81;100.00;97760.47;4221849;34;20068;-68
2022/11/21 08:20:39;;;;;;;48.20;20.42;;;;;;;-0.71;100.00;97775.09;4227339;33;20045;-69
2022/11/21 08:23:06;;;;;;;52.33;19.55;;;;;;;-0.69;100.00;97757.19;4223662;33;20046;-70
2022/11/21 08:25:33;;;;;;;39.65;19.85;;;;;;;-0.67;100.00;97760.41;4224531;34;20464;-70
2022/11/21 08:28:01;;;;;;;35.67;16.25;;;;;;;-0.46;100.00;97752.22;4225078;34;20072;-70
2022/11/21 08:30:28;;;;;;;44.92;18.17;;;;;;;-0.47;100.00;97761.16;4209570;34;20074;-69
2022/11/21 08:32:56;;;;;;;44.88;19.95;;;;;;;-0.15;100.00;97755.94;4211644;34;20055;-69
2022/11/21 08:35:24;;;;;;;50.63;16.83;;;;;;;-0.15;100.00;97745.34;4211522;34;20385;-69
2022/11/21 08:37:58;;;;;;;42.58;18.50;;;;;;;-0.04;100.00;97755.25;4238217;33;20080;-69
2022/11/21 08:40:26;;;;;;;45.63;20.30;;;;;;;0.15;100.00;97744.75;4237642;33;20060;-68
2022/11/21 08:43:02;;;;;;;40.35;17.92;;;;;;;0.08;100.00;97741.34;4238080;33;20816;-69
2022/11/21 08:45:29;;;;;;;45.38;19.30;;;;;;;0.08;100.00;97751.91;4239514;33;20049;-69
2022/11/21 08:47:56;;;;;;;34.00;14.63;;;;;;;0.21;100.00;97743.06;4209895;34;20061;-73
2022/11/21 08:50:23;;;;;;;37.47;16.87;;;;;;;-0.02;100.00;97729.41;4207562;34;20096;-71
2022/11/21 08:52:50;;;;;;;49.35;19.90;;;;;;;0.17;100.00;97758.59;4211335;34;20127;-72
2022/11/21 08:55:17;;;;;;;45.38;20.15;;;;;;;0.38;100.00;97756.62;4210136;34;20064;-71
2022/11/21 08:57:43;;;;;;;40.45;16.23;;;;;;;0.51;100.00;97764.44;4210581;34;20063;-72
2022/11/21 09:00:13;;;;;;;45.70;18.90;;;;;;;0.51;100.00;97773.22;4211512;34;20069;-71
2022/11/21 09:02:40;;;;;;;41.83;18.45;;;;;;;0.58;100.00;97746.69;4207526;34;20098;-71
2022/11/21 09:05:07;;;;;;;45.38;19.12;;;;;;;0.80;100.00;97727.72;4210655;34;20059;-72
2022/11/21 09:07:34;;;;;;;52.80;20.55;;;;;;;0.76;100.00;97758.34;4213485;33;20106;-72
2022/11/21 09:10:01;;;;;;;48.25;20.00;;;;;;;1.16;100.00;97758.75;4235781;33;20056;-72
2022/11/21 09:12:28;;;;;;;60.75;23.55;;;;;;;0.78;100.00;97766.88;4236993;33;20068;-72
2022/11/21 09:20:24;;;;;;;50.90;21.70;;;;;;;0.44;100.00;97740.66;4264526;33;20042;-73
2022/11/21 09:22:52;;;;;;;40.15;15.45;;;;;;;0.24;100.00;97711.72;4265922;33;20042;-73
2022/11/21 09:25:18;;;;;;;51.60;21.45;;;;;;;0.37;100.00;97739.94;4266318;33;20323;-72
2022/11/21 09:27:44;;;;;;;49.00;21.80;;;;;;;0.82;100.00;97709.78;4237837;33;20076;-73
2022/11/21 09:30:11;;;;;;;46.22;20.52;;;;;;;0.71;100.00;97735.97;4249145;33;20034;-73
2022/11/21 09:32:39;;;;;;;52.22;23.60;;;;;;;0.75;100.00;97709.03;4230674;33;20065;-72
2022/11/21 09:35:05;;;;;;;50.63;23.50;;;;;;;0.38;100.00;97724.84;4231985;33;20038;-73
2022/11/21 09:37:38;;;;;;;44.75;21.75;;;;;;;0.39;100.00;97734.41;4231520;33;20104;-72
2022/11/21 09:40:05;;;;;;;44.35;20.00;;;;;;;-0.18;100.00;97690.19;4230321;33;20034;-73
2022/11/21 09:42:50;;;;;;;50.90;20.58;;;;;;;0.01;100.00;97698.25;4230495;33;20055;-72
2022/11/21 09:45:24;;;;;;;52.40;20.50;;;;;;;0.52;100.00;97692.72;4220017;33;20046;-73
2022/11/21 09:47:52;;;;;;;42.47;17.90;;;;;;;0.26;100.00;97722.91;4220332;33;20094;-72
2022/11/21 09:50:33;;;;;;;54.15;22.25;;;;;;;0.57;100.00;97681.47;4209765;34;20047;-73
2022/11/21 09:53:28;;;;;;;45.60;21.10;;;;;;;0.46;100.00;97711.31;4209010;34;20068;-73
2022/11/21 09:55:58;;;;;;;53.90;25.45;;;;;;;0.64;100.00;97708.72;4192811;34;20075;-73
2022/11/21 09:58:38;;;;;;;51.35;22.23;;;;;;;0.42;100.00;97689.78;4187377;34;20375;-70
2022/11/21 10:01:05;;;;;;;48.67;20.95;;;;;;;0.61;100.00;97689.81;4186615;34;20256;-69
2022/11/21 10:03:43;;;;;;;51.53;22.92;;;;;;;0.85;100.00;97680.19;4192418;34;20099;-71
2022/11/21 10:06:18;;;;;;;42.75;18.80;;;;;;;0.52;100.00;97689.28;4186263;34;20121;-69
2022/11/21 10:09:33;;;;;;;42.88;18.48;;;;;;;0.55;100.00;97694.13;4157861;34;20060;-68
2022/11/21 10:12:39;;;;;;;49.25;21.85;;;;;;;0.48;100.00;97696.03;4156263;34;20456;-69
2022/11/21 10:15:34;;;;;;;47.85;19.83;;;;;;;0.57;100.00;97686.78;4161346;34;20504;-70
2022/11/21 10:18:39;;;;;;;51.40;22.77;;;;;;;0.77;100.00;97691.09;4161918;34;20052;-70
2022/11/21 10:21:23;;;;;;;45.17;20.23;;;;;;;0.77;100.00;97683.16;4176190;34;20077;-70
2022/11/21 10:24:01;;;;;;;48.38;21.50;;;;;;;0.57;100.00;97644.41;4165924;34;20458;-70
2022/11/21 10:26:31;;;;;;;50.65;21.15;;;;;;;0.70;100.00;97659.34;4176268;34;20038;-70
2022/11/21 10:29:15;;;;;;;55.85;22.42;;;;;;;1.03;100.00;97653.69;4207906;34;20042;-70
2022/11/21 10:31:43;;;;;;;48.28;22.30;;;;;;;1.02;100.00;97683.87;4208384;34;20561;-70
2022/11/21 10:34:14;;;;;;;55.20;25.20;;;;;;;0.80;100.00;97680.03;4206406;34;20129;-71
2022/11/21 10:36:46;;;;;;;57.92;24.52;;;;;;;1.18;100.00;97682.50;4217044;33;20051;-70
2022/11/21 10:39:19;;;;;;;52.80;22.85;;;;;;;0.99;100.00;97684.34;4236760;33;20128;-70
2022/11/21 10:41:52;;;;;;;48.25;20.73;;;;;;;1.37;100.00;97658.59;4235458;33;20049;-69
2022/11/21 10:47:13;;;;;;;53.70;24.00;;;;;;;0.96;100.00;97641.53;4260204;33;20054;-69
2022/11/21 10:49:42;;;;;;;57.33;25.62;;;;;;;0.89;100.00;97641.62;4234059;33;20073;-69
2022/11/21 10:52:22;;;;;;;49.88;24.00;;;;;;;1.37;100.00;97675.31;4234292;33;20060;-70
2022/11/21 10:55:01;;;;;;;61.13;26.60;;;;;;;1.48;100.00;97664.97;4238985;33;20158;-69
2022/11/21 10:57:32;;;;;;;56.20;23.67;;;;;;;1.55;100.00;97660.41;4251888;33;20168;-69
2022/11/21 11:00:00;;;;;;;55.22;23.95;;;;;;;1.53;100.00;97662.47;4231434;33;20064;-69
2022/11/21 11:02:27;;;;;;;51.47;23.65;;;;;;;1.89;100.00;97650.12;4246070;33;20047;-70
2022/11/21 11:05:15;;;;;;;59.47;25.35;;;;;;;1.92;100.00;97654.97;4243811;33;20460;-69
2022/11/21 11:08:07;;;;;;;64.37;23.62;;;;;;;1.73;100.00;97655.03;4228439;33;20097;-70
2022/11/21 11:10:36;;;;;;;55.20;25.25;;;;;;;1.95;100.00;97657.19;4226100;33;20038;-69
2022/11/21 11:13:33;;;;;;;71.93;30.45;;;;;;;1.87;100.00;97620.31;4229978;33;20066;-70
2022/11/21 11:16:10;;;;;;;59.95;24.58;;;;;;;1.77;100.00;97658.03;4226831;33;20057;-69
2022/11/21 11:18:44;;;;;;;67.85;29.80;;;;;;;1.62;100.00;97629.28;4226102;33;20074;-70
2022/11/21 11:21:17;;;;;;;66.35;28.12;;;;;;;1.89;100.00;97650.12;4238024;33;20065;-70
2022/11/21 11:23:45;;;;;;;51.25;23.80;;;;;;;2.05;100.00;97649.44;4239060;33;20035;-70
2022/11/21 11:26:30;;;;;;;58.45;25.55;;;;;;;1.81;100.00;97645.94;4230171;33;20472;-69
2022/11/21 11:29:21;;;;;;;55.97;26.95;;;;;;;2.37;100.00;97647.28;4239719;33;20056;-68
2022/11/21 11:31:58;;;;;;;62.70;26.80;;;;;;;2.06;100.00;97624.53;4226884;33;20124;-70
2022/11/21 11:34:38;;;;;;;65.37;29.98;;;;;;;2.29;100.00;97649.47;4226993;33;20084;-69
2022/11/21 11:37:31;;;;;;;51.35;21.60;;;;;;;1.99;100.00;97626.47;4228131;33;20039;-69
2022/11/21 11:40:20;;;;;;;51.05;23.60;;;;;;;2.45;100.00;97662.06;4250421;33;20413;-68
2022/11/21 11:50:12;;;;;;;66.57;27.60;;;;;;;2.45;100.00;97659.41;4248050;33;20088;-69
2022/11/21 11:53:21;;;;;;;69.15;25.27;;;;;;;2.40;100.00;97654.00;4246586;33;20400;-69
2022/11/21 11:55:56;;;;;;;63.33;24.12;;;;;;;2.46;100.00;97661.03;4226507;33;20068;-68
2022/11/21 11:58:28;;;;;;;64.95;28.87;;;;;;;2.72;100.00;97664.28;4263199;33;20054;-70
2022/11/21 12:01:14;;;;;;;58.25;29.40;;;;;;;2.72;100.00;97669.59;4400691;28;20083;-69
2022/11/21 12:04:25;;;;;;;74.75;25.73;;;;;;;2.58;100.00;97665.56;4233274;33;20054;-72
2022/11/21 12:07:05;;;;;;;53.65;22.95;;;;;;;2.48;100.00;97637.69;4200237;34;20061;-72
2022/11/21 12:09:46;;;;;;;65.03;27.27;;;;;;;2.60;100.00;97660.81;4202572;34;20043;-72
2022/11/21 12:12:22;;;;;;;49.38;23.10;;;;;;;2.52;100.00;97644.19;4193684;34;20223;-71
2022/11/21 12:18:14;;;;;;;68.47;28.50;;;;;;;2.82;100.00;97669.00;4194737;34;20061;-72
2022/11/21 12:21:12;;;;;;;62.50;28.62;;;;;;;2.77;100.00;97667.03;4180232;34;20184;-72
2022/11/21 12:23:49;;;;;;;55.97;25.45;;;;;;;2.99;100.00;97653.16;4175708;34;20044;-73
2022/11/21 12:26:39;;;;;;;65.68;27.15;;;;;;;2.80;100.00;97640.00;4178245;34;20040;-72
2022/11/21 12:29:24;;;;;;;57.70;28.02;;;;;;;2.98;100.00;97678.13;4180899;34;20043;-72
2022/11/21 12:31:57;;;;;;;66.55;28.55;;;;;;;2.94;100.00;97661.03;4180830;34;20373;-72
2022/11/21 12:34:31;;;;;;;59.03;23.30;;;;;;;2.84;100.00;97630.53;4178595;34;20057;-72
2022/11/21 12:37:23;;;;;;;60.17;25.65;;;;;;;2.73;100.00;97636.66;4180032;34;20360;-73
2022/11/21 12:39:57;;;;;;;54.92;25.05;;;;;;;2.98;100.00;97662.16;4179136;34;20118;-71
2022/11/21 12:42:48;;;;;;;58.42;26.30;;;;;;;3.01;100.00;97651.06;4193747;34;20035;-72
2022/11/21 12:45:31;;;;;;;63.20;30.17;;;;;;;2.79;100.00;97632.25;4201871;34;20035;-71
2022/11/21 12:54:34;;;;;;;53.63;22.40;;;;;;;2.91;100.00;97663.09;4218834;34;20045;-73
2022/11/21 12:57:13;;;;;;;56.83;22.65;;;;;;;2.75;100.00;97626.59;4223499;34;20061;-73
2022/11/21 13:00:07;;;;;;;59.88;24.27;;;;;;;2.88;100.00;97625.53;4220887;34;20062;-73
2022/11/21 13:02:44;;;;;;;56.78;23.87;;;;;;;3.25;100.00;97657.91;4209273;34;20358;-73
2022/11/21 13:05:17;;;;;;;62.83;26.00;;;;;;;3.17;100.00;97650.31;4221678;34;20072;-72
2022/11/21 13:07:45;;;;;;;69.82;27.50;;;;;;;2.91;100.00;97652.47;4223925;33;20047;-72
2022/11/21 13:10:15;;;;;;;67.10;26.77;;;;;;;2.97;100.00;97644.56;4223665;33;20051;-72
2022/11/21 13:12:53;;;;;;;64.30;27.13;;;;;;;3.33;100.00;97647.97;4232307;33;20410;-72
2022/11/21 13:15:34;;;;;;;55.85;23.40;;;;;;;3.12;100.00;97615.66;4269512;33;20057;-73
2022/11/21 13:18:21;;;;;;;63.15;28.35;;;;;;;3.09;100.00;97648.03;4269406;33;20041;-73
2022/11/21 13:20:50;;;;;;;57.25;27.10;;;;;;;2.88;100.00;97647.59;4272750;33;20136;-73
2022/11/21 13:23:39;;;;;;;61.28;25.40;;;;;;;2.99;100.00;97658.47;4269799;33;20038;-72
2022/11/21 13:26:24;;;;;;;70.32;28.15;;;;;;;3.40;100.00;97653.97;4264464;33;20469;-72
2022/11/21 13:29:07;;;;;;;61.10;24.98;;;;;;;3.30;100.00;97653.75;4268090;33;20041;-72
2022/11/21 13:31:35;;;;;;;65.43;26.35;;;;;;;3.10;100.00;97628.38;4253789;33;20528;-72
2022/11/21 13:34:02;;;;;;;71.75;25.17;;;;;;;3.04;100.00;97635.44;4253799;33;20042;-72
2022/11/21 13:36:30;;;;;;;60.22;23.80;;;;;;;2.99;100.00;97664.59;4253899;33;20063;-73
2022/11/21 13:38:57;;;;;;;64.22;26.33;;;;;;;2.84;100.00;97659.75;4251404;33;20038;-73
2022/11/21 13:44:30;;;;;;;56.22;23.83;;;;;;;3.03;100.00;97662.25;4253084;33;20470;-73
2022/11/21 13:47:03;;;;;;;59.85;26.17;;;;;;;2.97;100.00;97665.84;4250517;33;20173;-72
2022/11/21 13:49:29;;;;;;;64.90;26.40;;;;;;;3.18;100.00;97635.97;4252893;33;20345;-73
2022/11/21 13:51:56;;;;;;;62.92;27.98;;;;;;;3.17;100.00;97630.91;4239022;33;20436;-73
2022/11/21 13:54:53;;;;;;;53.80;23.77;;;;;;;3.04;100.00;97667.34;4239299;33;20113;-72
2022/11/21 13:57:40;;;;;;;68.93;27.62;;;;;;;3.24;100.00;97672.28;4224750;33;20050;-72
2022/11/21 14:00:36;;;;;;;60.17;25.48;;;;;;;3.20;100.00;97660.50;4217906;33;20086;-73
2022/11/21 14:03:20;;;;;;;69.40;29.30;;;;;;;3.32;100.00;97668.44;4222111;33;20357;-73
2022/11/21 14:05:55;;;;;;;66.55;28.90;;;;;;;3.19;100.00;97661.56;4231864;33;20055;-72